createdAt,value
2024-02-16T00:04:40.389Z,1.85
2024-02-16T00:09:41.197Z,1.90
2024-02-16T00:14:42.042Z,1.12
2024-02-16T00:19:42.958Z,1.50
2024-02-16T00:24:44.065Z,1.40
2024-02-16T00:29:46.497Z,1.30
2024-02-16T00:34:47.323Z,1.27
2024-02-16T00:39:48.370Z,1.23
2024-02-16T00:44:49.396Z,1.50
2024-02-16T00:49:50.260Z,1.35
2024-02-16T00:54:51.232Z,1.17
2024-02-16T00:59:52.039Z,1.50
2024-02-16T01:04:53.355Z,1.40
2024-02-16T01:09:55.088Z,1.27
2024-02-16T01:14:56.014Z,1.20
2024-02-16T01:19:57.208Z,1.27
2024-02-16T01:24:58.444Z,1.02
2024-02-16T01:29:59.219Z,1.10
2024-02-16T01:35:00.129Z,1.23
2024-02-16T01:40:03.395Z,1.27
2024-02-16T01:45:04.771Z,1.17
2024-02-16T01:50:07.458Z,1.27
2024-02-16T01:55:12.299Z,1.23
2024-02-16T02:00:15.330Z,1.12
2024-02-16T02:10:17.957Z,1.60
2024-02-16T02:15:19.678Z,1.40
2024-02-16T02:20:20.676Z,1.30
2024-02-16T02:25:24.092Z,1.60
2024-02-16T02:30:26.420Z,1.80
2024-02-16T02:35:27.286Z,1.50
2024-02-16T02:40:28.110Z,1.48
2024-02-16T02:45:29.047Z,1.55
2024-02-16T02:50:31.214Z,1.60
2024-02-16T02:55:32.137Z,1.40
2024-02-16T03:00:33.260Z,1.42
2024-02-16T03:05:34.126Z,1.50
2024-02-16T03:10:36.217Z,1.58
2024-02-16T03:15:37.512Z,1.93
2024-02-16T03:20:38.299Z,1.70
2024-02-16T03:25:39.695Z,1.48
2024-02-16T03:30:40.893Z,1.52
2024-02-16T03:35:41.757Z,2.55
2024-02-16T03:40:42.535Z,1.62
2024-02-16T03:45:43.428Z,1.75
2024-02-16T03:50:44.229Z,1.48
2024-02-16T03:55:45.197Z,1.65
2024-02-16T04:00:46.149Z,2.35
2024-02-16T04:05:47.281Z,1.77
2024-02-16T04:10:48.243Z,1.65
2024-02-16T04:15:52.425Z,2.28
2024-02-16T04:20:55.517Z,1.70
2024-02-16T04:25:56.860Z,1.90
2024-02-16T04:30:57.712Z,1.80
2024-02-16T04:35:58.552Z,2.12
2024-02-16T04:40:59.443Z,2.00
2024-02-16T04:46:01.086Z,1.60
2024-02-16T04:51:02.270Z,2.30
2024-02-16T04:56:05.360Z,2.12
2024-02-16T05:01:07.425Z,1.95
2024-02-16T05:06:08.394Z,1.90
2024-02-16T05:11:09.449Z,1.98
2024-02-16T05:16:11.441Z,1.98
2024-02-16T05:21:12.263Z,1.85
2024-02-16T05:26:13.199Z,1.95
2024-02-16T05:31:19.012Z,2.45
2024-02-16T05:36:21.039Z,2.65
2024-02-16T05:41:21.870Z,2.08
2024-02-16T05:46:23.983Z,1.90
2024-02-16T05:51:24.953Z,1.77
2024-02-16T05:56:25.928Z,1.77
2024-02-16T06:01:28.190Z,1.90
2024-02-16T06:06:29.153Z,1.77
2024-02-16T06:11:30.228Z,2.03
2024-02-16T06:16:31.103Z,2.62
2024-02-16T06:21:31.944Z,1.83
2024-02-16T06:26:32.882Z,1.90
2024-02-16T06:31:33.657Z,2.35
2024-02-16T06:36:34.965Z,2.10
2024-02-16T06:41:35.845Z,1.70
2024-02-16T06:46:36.654Z,2.47
2024-02-16T06:51:37.556Z,2.95
2024-02-16T06:56:38.802Z,2.45
2024-02-16T07:01:41.029Z,2.05
2024-02-16T07:06:42.442Z,2.27
2024-02-16T07:11:48.290Z,1.73
2024-02-16T07:16:50.606Z,1.90
2024-02-16T07:21:52.700Z,1.70
2024-02-16T07:26:53.808Z,1.40
2024-02-16T07:31:56.368Z,1.70
2024-02-16T07:36:57.469Z,1.87
2024-02-16T07:41:58.422Z,1.60
2024-02-16T07:46:59.427Z,1.67
2024-02-16T07:52:00.255Z,1.90
2024-02-16T07:57:02.136Z,1.75
2024-02-16T08:02:03.538Z,1.87
2024-02-16T08:07:04.384Z,2.00
2024-02-16T08:12:07.364Z,1.70
2024-02-16T08:17:15.784Z,1.70
2024-02-16T08:22:22.470Z,2.13
2024-02-16T08:27:23.567Z,2.15
2024-02-16T08:32:24.535Z,1.87
2024-02-16T08:37:26.037Z,2.10
2024-02-16T08:42:26.984Z,2.08
2024-02-16T08:47:28.069Z,2.03
2024-02-16T08:52:29.039Z,2.33
2024-02-16T08:57:32.632Z,2.22
2024-02-16T09:02:33.622Z,2.20
2024-02-16T09:07:34.522Z,2.08
2024-02-16T09:12:35.720Z,1.85
2024-02-16T09:17:37.013Z,1.70
2024-02-16T09:27:47.320Z,1.90
2024-02-16T09:32:48.143Z,1.92
2024-02-16T09:37:49.011Z,1.90
2024-02-16T09:42:50.189Z,1.60
2024-02-16T09:48:01.213Z,2.22
2024-02-16T09:53:14.460Z,1.98
2024-02-16T09:58:18.516Z,1.67
2024-02-16T10:03:30.568Z,2.40
2024-02-16T10:08:31.662Z,2.15
2024-02-16T10:13:32.699Z,2.00
2024-02-16T10:18:33.822Z,2.10
2024-02-16T10:23:43.586Z,2.42
2024-02-16T10:28:46.662Z,1.90
2024-02-16T10:33:47.992Z,1.80
2024-02-16T10:38:51.177Z,2.58
2024-02-16T10:43:54.329Z,2.05
2024-02-16T10:48:55.636Z,2.10
2024-02-16T10:53:59.477Z,2.03
2024-02-16T10:59:04.568Z,2.65
2024-02-16T11:04:10.106Z,2.40
2024-02-16T11:09:11.113Z,2.00
2024-02-16T11:14:16.334Z,2.35
2024-02-16T11:19:17.555Z,2.47
2024-02-16T11:24:23.963Z,2.58
2024-02-16T11:29:26.259Z,3.12
2024-02-16T11:34:28.110Z,2.47
2024-02-16T11:39:33.447Z,2.70
2024-02-16T11:44:40.213Z,2.47
2024-02-16T11:49:41.451Z,2.60
2024-02-16T11:54:45.662Z,2.80
2024-02-16T11:59:46.869Z,2.87
2024-02-16T12:04:55.396Z,2.00
2024-02-16T12:10:06.657Z,2.95
2024-02-16T12:15:08.424Z,2.50
2024-02-16T12:20:16.554Z,2.22
2024-02-16T12:25:17.627Z,3.33
2024-02-16T12:30:18.776Z,2.22
2024-02-16T12:35:19.709Z,1.87
2024-02-16T12:40:20.550Z,2.80
2024-02-16T12:45:24.267Z,2.10
2024-02-16T12:50:25.568Z,2.30
2024-02-16T12:55:26.518Z,3.05
2024-02-16T13:00:27.460Z,2.50
2024-02-16T13:05:29.445Z,2.12
2024-02-16T13:10:30.686Z,2.47
2024-02-16T13:15:31.674Z,2.10
2024-02-16T13:20:34.786Z,2.12
2024-02-16T13:25:36.543Z,2.37
2024-02-16T13:30:37.668Z,2.22
2024-02-16T13:35:39.423Z,2.10
2024-02-16T13:40:41.707Z,2.62
2024-02-16T13:45:53.567Z,3.12
2024-02-16T13:50:56.362Z,2.40
2024-02-16T13:56:01.177Z,2.30
2024-02-16T14:01:04.109Z,2.97
2024-02-16T14:11:08.688Z,2.28
2024-02-16T14:16:10.508Z,2.45
2024-02-16T14:21:11.893Z,2.10
2024-02-16T14:26:12.739Z,2.12
2024-02-16T14:31:14.508Z,2.20
2024-02-16T14:36:16.192Z,2.50
2024-02-16T14:41:17.117Z,1.67
2024-02-16T14:46:17.925Z,2.08
2024-02-16T14:51:18.866Z,1.90
2024-02-16T14:56:22.152Z,1.55
2024-02-16T15:01:23.171Z,1.85
2024-02-16T15:06:24.073Z,1.42
2024-02-16T15:11:24.956Z,1.60
2024-02-16T15:16:25.796Z,1.42
2024-02-16T15:21:28.039Z,1.90
2024-02-16T15:26:28.984Z,1.90
2024-02-16T15:31:29.962Z,3.40
2024-02-16T15:36:31.857Z,3.12
2024-02-16T15:41:32.716Z,2.47
2024-02-16T15:46:34.788Z,8.18
2024-02-16T15:51:35.750Z,5.33
2024-02-16T15:56:37.175Z,3.40
2024-02-16T16:01:38.349Z,1.58
2024-02-16T16:06:39.473Z,2.05
2024-02-16T16:11:43.742Z,2.12
2024-02-16T16:16:44.910Z,1.70
2024-02-16T16:21:46.046Z,1.70
2024-02-16T16:26:49.073Z,1.65
2024-02-16T16:31:50.022Z,2.10
2024-02-16T16:36:51.044Z,2.10
2024-02-16T16:41:55.362Z,1.70
2024-02-16T16:46:56.474Z,1.48
2024-02-16T16:51:58.554Z,5.90
2024-02-16T16:56:59.392Z,1.83
2024-02-16T17:02:03.763Z,1.83
2024-02-16T17:07:04.710Z,3.67
2024-02-16T17:12:07.191Z,2.10
2024-02-16T17:17:07.983Z,1.90
2024-02-16T17:22:08.950Z,2.25
2024-02-16T17:27:09.874Z,2.47
2024-02-16T17:32:11.518Z,2.25
2024-02-16T17:37:12.470Z,2.70
2024-02-16T17:42:13.452Z,2.75
2024-02-16T17:47:15.257Z,2.20
2024-02-16T17:52:17.575Z,2.78
2024-02-16T17:57:19.636Z,1.83
2024-02-16T18:02:29.505Z,2.07
2024-02-16T18:07:40.013Z,2.05
2024-02-16T18:12:41.266Z,2.10
2024-02-16T18:17:42.284Z,2.05
2024-02-16T18:22:43.184Z,3.78
2024-02-16T18:27:44.154Z,1.70
2024-02-16T18:32:45.171Z,1.60
2024-02-16T18:37:46.038Z,2.67
2024-02-16T18:42:48.999Z,2.70
2024-02-16T18:47:50.039Z,2.30
2024-02-16T18:52:51.002Z,2.03
2024-02-16T18:57:53.080Z,2.50
2024-02-16T19:02:54.149Z,2.30
2024-02-16T19:07:55.059Z,2.30
2024-02-16T19:12:56.102Z,2.58
2024-02-16T19:17:57.045Z,2.50
2024-02-16T19:22:58.891Z,2.87
2024-02-16T19:27:59.671Z,2.95
2024-02-16T19:33:01.073Z,3.20
2024-02-16T19:38:02.008Z,3.00
2024-02-16T19:43:03.540Z,2.90
2024-02-16T19:48:04.883Z,3.97
2024-02-16T19:53:05.902Z,3.67
2024-02-16T19:58:06.675Z,3.10
2024-02-16T20:03:08.722Z,2.90
2024-02-16T20:08:09.605Z,3.08
2024-02-16T20:13:11.515Z,2.72
2024-02-16T20:18:17.821Z,2.87
2024-02-16T20:23:18.751Z,2.60
2024-02-16T20:28:19.574Z,2.83
2024-02-16T20:33:20.638Z,3.15
2024-02-16T20:38:21.621Z,2.62
2024-02-16T20:43:22.475Z,3.05
2024-02-16T20:48:23.971Z,0.55
2024-02-16T20:53:24.832Z,0.30
2024-02-16T20:58:25.678Z,0.57
2024-02-16T21:03:26.652Z,1.02
2024-02-16T21:08:27.553Z,1.70
2024-02-16T21:13:28.344Z,2.37
2024-02-16T21:18:29.773Z,3.10
2024-02-16T21:23:30.684Z,3.53
2024-02-16T21:28:31.511Z,4.55
2024-02-16T21:33:35.918Z,4.62
2024-02-16T21:38:37.071Z,5.32
2024-02-16T21:43:38.831Z,4.62
2024-02-16T21:48:44.463Z,6.10
2024-02-16T21:53:50.723Z,6.55
2024-02-16T21:58:51.510Z,6.62
2024-02-16T22:03:52.834Z,7.60
2024-02-16T22:08:54.214Z,9.23
2024-02-16T22:13:55.127Z,10.20
2024-02-16T22:18:56.088Z,10.45
2024-02-16T22:23:58.342Z,9.55
2024-02-16T22:28:59.121Z,10.90
2024-02-16T22:34:00.284Z,11.00
2024-02-16T22:39:01.734Z,11.55
2024-02-16T22:44:04.064Z,12.10
2024-02-16T22:49:05.213Z,13.83
2024-02-16T22:54:06.188Z,12.57
2024-02-16T22:59:07.049Z,12.68
2024-02-16T23:04:08.516Z,14.48
2024-02-16T23:09:10.487Z,13.62
2024-02-16T23:14:11.605Z,13.38
2024-02-16T23:19:12.515Z,12.95
2024-02-16T23:24:13.418Z,14.20
2024-02-16T23:29:16.649Z,13.15
2024-02-16T23:34:17.716Z,12.98
2024-02-16T23:39:18.695Z,15.00
2024-02-16T23:44:19.644Z,13.62
2024-02-16T23:49:20.580Z,9.25
2024-02-16T23:54:21.439Z,10.85
2024-02-16T23:59:22.246Z,9.63
